Time;durP1;ratioP1;P1;durP2;ratioP2;P2;SDS_P1;SDS_P2;PMS_P1;PMS_P2;Temp;Humidity;BMP_temperature;BMP_pressure;BME280_temperature;BME280_humidity;BME280_pressure;Samples;Min_cycle;Max_cycle;Signal;HPM_P1;HPM_P2
2022/08/01 00:04:41;;;;;;;;;;;;;;;21.53;62.72;95602.25;10406655;28;1970;-70
2022/08/01 00:09:44;;;;;;;;;;;;;;;21.45;62.59;95605.91;10405380;28;1844;-69
2022/08/01 00:14:48;;;;;;;;;;;;;;;21.36;63.25;95606.03;10401244;28;1939;-70
2022/08/01 00:19:51;;;;;;;;;;;;;;;21.23;64.35;95605.25;10412875;28;1865;-71
2022/08/01 00:24:54;;;;;;;;;;;;;;;21.09;65.38;95612.25;10412779;28;1856;-70
2022/08/01 00:29:57;;;;;;;;;;;;;;;20.93;66.10;95615.69;10429217;28;1929;-71
2022/08/01 00:35:16;;;;;;;;;;;;;;;20.75;66.86;95615.13;10408284;28;2199;-71
2022/08/01 00:40:20;;;;;;;;;;;;;;;20.67;67.88;95620.69;10410750;28;1984;-70
2022/08/01 00:45:24;;;;;;;;;;;;;;;20.62;67.77;95613.53;10410345;28;1925;-72
2022/08/01 00:50:30;;;;;;;;;;;;;;;20.58;67.72;95609.88;10419693;28;1936;-77
2022/08/01 00:55:33;;;;;;;;;;;;;;;20.48;68.26;95605.66;10408062;28;1975;-71
2022/08/01 01:00:37;;;;;;;;;;;;;;;20.35;68.73;95614.97;10414947;28;2008;-71
2022/08/01 01:05:56;;;;;;;;;;;;;;;20.36;68.87;95613.84;10410771;28;2019;-70
2022/08/01 01:11:00;;;;;;;;;;;;;;;20.34;68.50;95612.56;10416236;28;2064;-70
2022/08/01 01:16:04;;;;;;;;;;;;;;;20.24;68.57;95611.91;10405116;28;1932;-70
2022/08/01 01:21:08;;;;;;;;;;;;;;;20.29;68.20;95616.31;10408234;28;2024;-69
2022/08/01 01:26:21;;;;;;;;;;;;;;;20.32;67.57;95621.09;10416439;28;1977;-70
2022/08/01 01:31:34;;;;;;;;;;;;;;;20.15;68.30;95624.81;10408524;28;1982;-71
2022/08/01 01:36:57;;;;;;;;;;;;;;;20.10;68.71;95621.50;10403931;28;1972;-70
2022/08/01 01:42:03;;;;;;;;;;;;;;;20.01;69.34;95623.56;10413437;28;1956;-71
2022/08/01 01:47:08;;;;;;;;;;;;;;;19.87;70.05;95621.94;10410836;28;1912;-71
2022/08/01 01:52:12;;;;;;;;;;;;;;;19.82;70.93;95622.13;10414203;28;2044;-71
2022/08/01 01:57:16;;;;;;;;;;;;;;;19.72;71.26;95628.00;10415193;28;1925;-70
2022/08/01 02:02:21;;;;;;;;;;;;;;;19.73;71.15;95626.88;10414178;28;1980;-70
2022/08/01 02:07:24;;;;;;;;;;;;;;;19.81;70.83;95636.09;10412022;28;1922;-71
2022/08/01 02:12:28;;;;;;;;;;;;;;;19.90;69.92;95632.16;10414145;28;2020;-71
2022/08/01 02:17:32;;;;;;;;;;;;;;;19.97;68.37;95634.31;10407987;28;1988;-71
2022/08/01 02:22:37;;;;;;;;;;;;;;;19.88;69.26;95636.34;10420693;28;1964;-70
2022/08/01 02:27:41;;;;;;;;;;;;;;;19.84;69.26;95636.22;10408472;28;1913;-73
2022/08/01 02:32:45;;;;;;;;;;;;;;;19.84;69.21;95641.69;10406475;28;2401;-70
2022/08/01 02:37:49;;;;;;;;;;;;;;;19.77;68.89;95630.50;10411589;28;1937;-70
2022/08/01 02:42:53;;;;;;;;;;;;;;;19.72;68.89;95647.09;10414167;28;1920;-71
2022/08/01 02:47:56;;;;;;;;;;;;;;;19.70;69.36;95644.69;10405305;28;2055;-69
2022/08/01 02:53:00;;;;;;;;;;;;;;;19.72;69.58;95638.91;10414633;28;1965;-71
2022/08/01 02:58:04;;;;;;;;;;;;;;;19.76;68.92;95641.75;10419412;28;1930;-71
2022/08/01 03:03:08;;;;;;;;;;;;;;;19.71;68.82;95651.75;10408909;28;1985;-71
2022/08/01 03:08:11;;;;;;;;;;;;;;;19.66;69.68;95656.63;10412251;28;1891;-71
2022/08/01 03:13:17;;;;;;;;;;;;;;;19.50;69.81;95655.59;10414094;28;2006;-70
2022/08/01 03:18:20;;;;;;;;;;;;;;;19.49;69.68;95657.53;10420184;28;1918;-70
2022/08/01 03:23:24;;;;;;;;;;;;;;;19.50;69.43;95659.13;10413743;28;1984;-70
2022/08/01 03:28:40;;;;;;;;;;;;;;;19.42;69.77;95658.06;10411858;28;2106;-72
2022/08/01 03:33:44;;;;;;;;;;;;;;;19.40;69.39;95651.34;10412744;28;1905;-71
2022/08/01 03:38:48;;;;;;;;;;;;;;;19.32;70.04;95660.38;10414494;28;1965;-72
2022/08/01 03:43:52;;;;;;;;;;;;;;;19.28;70.52;95668.44;10406009;28;1972;-74
2022/08/01 03:48:55;;;;;;;;;;;;;;;19.14;71.36;95673.31;10413384;28;2304;-73
2022/08/01 03:53:58;;;;;;;;;;;;;;;19.19;71.04;95675.84;10417267;28;2382;-73
2022/08/01 03:59:02;;;;;;;;;;;;;;;19.10;71.58;95684.09;10439064;28;2412;-70
2022/08/01 04:04:06;;;;;;;;;;;;;;;19.02;72.23;95682.22;10418252;28;1900;-70
2022/08/01 04:09:09;;;;;;;;;;;;;;;19.10;72.25;95695.00;10417979;28;1938;-71
2022/08/01 04:14:16;;;;;;;;;;;;;;;19.10;72.12;95694.19;10417011;28;1980;-71
2022/08/01 04:19:20;;;;;;;;;;;;;;;19.14;72.41;95695.13;10421122;28;1943;-71
2022/08/01 04:24:23;;;;;;;;;;;;;;;19.26;71.39;95703.38;10415310;28;2148;-69
2022/08/01 04:29:26;;;;;;;;;;;;;;;19.31;71.57;95716.81;10413925;28;2102;-70
2022/08/01 04:34:30;;;;;;;;;;;;;;;19.45;70.72;95711.09;10430529;28;2033;-72
2022/08/01 04:39:34;;;;;;;;;;;;;;;19.94;68.71;95706.75;10416293;28;1969;-71
2022/08/01 04:44:53;;;;;;;;;;;;;;;20.38;65.97;95714.50;10411447;28;1952;-70
2022/08/01 04:49:57;;;;;;;;;;;;;;;20.40;65.31;95723.94;10414396;28;2090;-70
2022/08/01 04:55:01;;;;;;;;;;;;;;;20.41;64.91;95720.06;10414050;28;1930;-69
2022/08/01 05:00:06;;;;;;;;;;;;;;;20.45;65.66;95718.31;10414939;28;2001;-72
2022/08/01 05:05:10;;;;;;;;;;;;;;;20.52;64.67;95726.72;10413620;28;1953;-70
2022/08/01 05:10:15;;;;;;;;;;;;;;;20.65;64.74;95726.75;10410106;28;1977;-71
2022/08/01 05:15:19;;;;;;;;;;;;;;;20.69;64.46;95735.88;10414764;28;1977;-70
2022/08/01 05:20:23;;;;;;;;;;;;;;;20.79;64.33;95735.41;10415504;28;1957;-70
2022/08/01 05:25:28;;;;;;;;;;;;;;;20.93;63.83;95740.56;10418090;28;1927;-71
2022/08/01 05:30:54;;;;;;;;;;;;;;;21.73;60.31;95737.22;10417466;28;1975;-70
2022/08/01 05:35:57;;;;;;;;;;;;;;;22.65;57.23;95745.31;10409145;28;1918;-74
2022/08/01 05:41:01;;;;;;;;;;;;;;;23.07;55.26;95742.09;10429228;28;1965;-71
2022/08/01 05:46:05;;;;;;;;;;;;;;;23.18;54.29;95756.06;10413521;28;1925;-71
2022/08/01 05:51:10;;;;;;;;;;;;;;;23.37;52.56;95744.38;10430645;28;1928;-71
2022/08/01 05:56:13;;;;;;;;;;;;;;;23.02;53.67;95755.25;10409876;28;1926;-71
2022/08/01 06:01:17;;;;;;;;;;;;;;;22.89;54.54;95763.56;10412086;28;1963;-72
2022/08/01 06:06:21;;;;;;;;;;;;;;;22.88;53.55;95756.50;10408826;28;2005;-72
2022/08/01 06:11:28;;;;;;;;;;;;;;;23.22;54.39;95764.38;10416835;28;2081;-71
2022/08/01 06:16:32;;;;;;;;;;;;;;;23.60;51.84;95769.19;10406570;28;1945;-73
2022/08/01 06:21:36;;;;;;;;;;;;;;;23.38;51.90;95767.91;10419594;28;1909;-74
2022/08/01 06:26:40;;;;;;;;;;;;;;;23.35;52.98;95774.06;10412637;28;1963;-70
2022/08/01 06:31:44;;;;;;;;;;;;;;;23.52;51.59;95770.97;10412845;28;2306;-72
2022/08/01 06:36:48;;;;;;;;;;;;;;;23.63;51.74;95774.00;10410314;28;1983;-73
2022/08/01 06:41:55;;;;;;;;;;;;;;;23.70;51.27;95774.16;10412807;28;1920;-71
2022/08/01 06:46:59;;;;;;;;;;;;;;;23.82;51.01;95773.25;10413133;28;1866;-73
2022/08/01 06:52:03;;;;;;;;;;;;;;;24.33;49.75;95773.13;10411715;28;1953;-74
2022/08/01 06:57:07;;;;;;;;;;;;;;;24.10;50.15;95764.81;10406550;28;2008;-72
2022/08/01 07:02:10;;;;;;;;;;;;;;;23.94;50.49;95776.66;10415309;28;2074;-75
2022/08/01 07:07:14;;;;;;;;;;;;;;;23.94;50.87;95773.13;10414064;28;1914;-76
2022/08/01 07:12:19;;;;;;;;;;;;;;;24.43;49.89;95767.06;10415984;28;1961;-73
2022/08/01 07:17:23;;;;;;;;;;;;;;;24.82;48.15;95772.53;10414011;28;1906;-72
2022/08/01 07:22:26;;;;;;;;;;;;;;;24.53;49.37;95761.00;10427332;28;1997;-71
2022/08/01 07:27:31;;;;;;;;;;;;;;;24.91;49.71;95765.63;10406884;28;1973;-71
2022/08/01 07:32:35;;;;;;;;;;;;;;;25.15;47.78;95763.72;10398642;28;2058;-71
2022/08/01 07:37:39;;;;;;;;;;;;;;;25.23;47.60;95757.94;10402375;28;2129;-72
2022/08/01 07:42:51;;;;;;;;;;;;;;;25.00;47.86;95762.63;10413099;28;1970;-72
2022/08/01 07:47:55;;;;;;;;;;;;;;;24.79;49.14;95768.53;10404778;28;2018;-72
2022/08/01 07:52:59;;;;;;;;;;;;;;;25.43;48.44;95766.13;10415210;28;1925;-72
2022/08/01 07:58:03;;;;;;;;;;;;;;;25.56;47.47;95773.00;10413169;28;2029;-72
2022/08/01 08:03:07;;;;;;;;;;;;;;;25.68;47.81;95764.53;10426306;28;1847;-71
2022/08/01 08:08:11;;;;;;;;;;;;;;;25.59;47.28;95770.31;10418307;28;1844;-71
2022/08/01 08:13:14;;;;;;;;;;;;;;;25.61;47.07;95764.44;10414649;28;1938;-71
2022/08/01 08:18:20;;;;;;;;;;;;;;;25.69;47.56;95755.09;10405847;28;1918;-70
2022/08/01 08:28:46;;;;;;;;;;;;;;;26.53;45.79;95758.59;10413199;28;1854;-71
2022/08/01 08:33:49;;;;;;;;;;;;;;;26.27;46.32;95751.97;10406394;28;1903;-74
2022/08/01 08:38:53;;;;;;;;;;;;;;;26.09;45.55;95757.28;10410675;28;1914;-72
2022/08/01 08:43:58;;;;;;;;;;;;;;;26.35;46.46;95739.88;10409022;28;1774;-72
2022/08/01 08:49:03;;;;;;;;;;;;;;;26.46;46.51;95745.53;10415593;28;1858;-72
2022/08/01 08:54:08;;;;;;;;;;;;;;;26.65;44.71;95750.06;10404087;28;1927;-72
2022/08/01 08:59:12;;;;;;;;;;;;;;;26.70;44.08;95752.47;10415954;28;1966;-73
2022/08/01 09:04:16;;;;;;;;;;;;;;;26.51;45.24;95744.41;10410738;28;1797;-70
2022/08/01 09:09:20;;;;;;;;;;;;;;;26.34;44.57;95735.53;10435742;28;1801;-70
2022/08/01 09:14:26;;;;;;;;;;;;;;;26.50;44.44;95753.84;10415216;28;1769;-71
2022/08/01 09:19:30;;;;;;;;;;;;;;;26.75;44.49;95754.91;10417092;28;1906;-71
2022/08/01 09:24:43;;;;;;;;;;;;;;;26.84;41.67;95758.13;10415989;28;1788;-71
2022/08/01 09:29:47;;;;;;;;;;;;;;;26.45;43.86;95748.66;10414411;28;1970;-71
2022/08/01 09:35:03;;;;;;;;;;;;;;;26.36;43.81;95743.41;10414682;28;1839;-71
2022/08/01 09:40:07;;;;;;;;;;;;;;;26.60;44.86;95758.69;10409639;28;1929;-71
2022/08/01 09:45:10;;;;;;;;;;;;;;;26.97;42.86;95736.59;10402198;28;1870;-70
2022/08/01 09:50:26;;;;;;;;;;;;;;;26.89;42.96;95741.25;10407684;28;2059;-71
2022/08/01 09:55:29;;;;;;;;;;;;;;;26.87;42.41;95740.84;10406533;28;1921;-72
2022/08/01 10:00:32;;;;;;;;;;;;;;;26.72;42.77;95728.09;10411427;28;1918;-71
2022/08/01 10:05:48;;;;;;;;;;;;;;;26.81;42.73;95730.53;10409443;28;1821;-72
2022/08/01 10:10:52;;;;;;;;;;;;;;;27.04;42.06;95722.88;10405460;28;1864;-70
2022/08/01 10:16:02;;;;;;;;;;;;;;;26.97;42.42;95727.50;10415541;28;1922;-71
2022/08/01 10:21:05;;;;;;;;;;;;;;;27.17;41.95;95715.13;10413289;28;1896;-70
2022/08/01 10:26:13;;;;;;;;;;;;;;;27.42;40.83;95718.88;10413082;28;1860;-69
2022/08/01 10:31:16;;;;;;;;;;;;;;;27.44;40.81;95713.75;10410850;28;1837;-72
2022/08/01 10:36:25;;;;;;;;;;;;;;;27.43;41.16;95714.13;10413370;28;1918;-71
2022/08/01 10:41:31;;;;;;;;;;;;;;;27.04;41.95;95706.31;10406509;28;1913;-73
2022/08/01 10:46:36;;;;;;;;;;;;;;;27.22;41.78;95717.50;10412651;28;1852;-70
2022/08/01 10:51:42;;;;;;;;;;;;;;;27.37;41.34;95710.94;10407984;28;1832;-73
2022/08/01 10:56:56;;;;;;;;;;;;;;;27.64;39.99;95700.47;10406224;28;1918;-72
2022/08/01 11:02:00;;;;;;;;;;;;;;;28.75;38.80;95698.16;10407979;28;1918;-71
2022/08/01 11:07:04;;;;;;;;;;;;;;;29.02;37.45;95699.41;10404217;28;1904;-72
2022/08/01 11:12:11;;;;;;;;;;;;;;;29.68;35.93;95689.88;10406682;28;1866;-70
2022/08/01 11:17:26;;;;;;;;;;;;;;;29.34;36.73;95682.00;10410432;28;1925;-70
2022/08/01 11:22:33;;;;;;;;;;;;;;;30.37;34.61;95676.16;10407447;28;1865;-71
2022/08/01 11:27:37;;;;;;;;;;;;;;;30.48;33.87;95676.13;10408215;28;1928;-70
2022/08/01 11:32:42;;;;;;;;;;;;;;;30.39;33.31;95678.53;10410992;28;1898;-72
2022/08/01 11:38:06;;;;;;;;;;;;;;;30.02;34.95;95668.75;10411169;28;1973;-74
2022/08/01 11:43:10;;;;;;;;;;;;;;;29.74;35.02;95666.13;10399860;28;1871;-71
2022/08/01 11:48:15;;;;;;;;;;;;;;;28.84;35.63;95673.66;10404860;28;2097;-73
2022/08/01 11:53:20;;;;;;;;;;;;;;;28.60;37.14;95657.84;10400348;28;1906;-71
2022/08/01 11:58:25;;;;;;;;;;;;;;;28.44;36.62;95664.53;10403641;28;1988;-71
2022/08/01 12:03:35;;;;;;;;;;;;;;;28.54;37.05;95658.22;10407550;28;1920;-71
2022/08/01 12:08:39;;;;;;;;;;;;;;;28.87;36.10;95644.41;10406203;28;1861;-71
2022/08/01 12:13:43;;;;;;;;;;;;;;;28.97;35.88;95663.03;10414489;28;1873;-71
2022/08/01 12:18:47;;;;;;;;;;;;;;;28.10;35.82;95647.41;10411623;28;1914;-71
2022/08/01 12:23:51;;;;;;;;;;;;;;;28.41;34.86;95650.69;10415158;28;2083;-70
2022/08/01 12:28:55;;;;;;;;;;;;;;;28.94;33.93;95644.44;10415515;28;2285;-71
2022/08/01 12:33:59;;;;;;;;;;;;;;;29.38;33.01;95632.94;10412959;28;2202;-71
2022/08/01 12:39:03;;;;;;;;;;;;;;;29.37;33.79;95627.78;10410695;28;1981;-70
2022/08/01 12:44:08;;;;;;;;;;;;;;;30.00;32.42;95624.03;10409295;28;1820;-71
2022/08/01 12:49:11;;;;;;;;;;;;;;;30.18;31.62;95623.22;10429758;28;1842;-72
2022/08/01 12:54:15;;;;;;;;;;;;;;;30.81;30.94;95615.69;10406959;28;2437;-72
2022/08/01 12:59:22;;;;;;;;;;;;;;;30.21;30.23;95616.84;10411442;28;1914;-71
2022/08/01 13:04:25;;;;;;;;;;;;;;;29.05;32.54;95618.34;10410301;28;1903;-71
2022/08/01 13:09:29;;;;;;;;;;;;;;;28.49;33.64;95614.34;10412974;28;1899;-70
2022/08/01 13:14:32;;;;;;;;;;;;;;;28.06;34.28;95621.78;10413499;28;1801;-71
2022/08/01 13:19:36;;;;;;;;;;;;;;;27.40;35.76;95624.59;10408662;28;2020;-71
2022/08/01 13:24:39;;;;;;;;;;;;;;;27.33;41.05;95641.13;10410806;28;1852;-71
2022/08/01 13:29:44;;;;;;;;;;;;;;;26.65;40.87;95639.78;10412216;28;1832;-70
2022/08/01 13:34:47;;;;;;;;;;;;;;;26.85;39.76;95635.63;10411909;28;1950;-70
2022/08/01 13:39:51;;;;;;;;;;;;;;;26.30;41.50;95632.75;10408777;28;1910;-71
2022/08/01 13:44:54;;;;;;;;;;;;;;;26.50;39.41;95618.78;10413325;28;2082;-71
2022/08/01 13:50:02;;;;;;;;;;;;;;;26.59;36.89;95625.56;10418982;28;2002;-72
2022/08/01 13:55:08;;;;;;;;;;;;;;;26.57;36.46;95618.84;10408904;28;1905;-70
2022/08/01 14:00:13;;;;;;;;;;;;;;;26.52;36.79;95635.72;10412829;28;1959;-72
2022/08/01 14:05:17;;;;;;;;;;;;;;;26.59;36.44;95624.75;10428165;28;1817;-71
2022/08/01 14:10:21;;;;;;;;;;;;;;;26.02;37.94;95635.19;10412440;28;1832;-71
2022/08/01 14:15:26;;;;;;;;;;;;;;;26.32;37.75;95637.88;10410360;28;2050;-72
2022/08/01 14:20:41;;;;;;;;;;;;;;;26.25;41.10;95652.38;10415607;28;1921;-71
2022/08/01 14:25:45;;;;;;;;;;;;;;;26.54;42.68;95647.19;10410708;28;2009;-72
2022/08/01 14:31:08;;;;;;;;;;;;;;;26.90;40.88;95651.81;10410396;28;1816;-70
2022/08/01 14:36:12;;;;;;;;;;;;;;;27.27;41.05;95648.16;10410644;28;2029;-73
2022/08/01 14:41:33;;;;;;;;;;;;;;;27.44;40.57;95643.94;10404847;28;1917;-72
2022/08/01 14:46:41;;;;;;;;;;;;;;;27.35;40.66;95644.28;10405452;28;1824;-71
2022/08/01 14:52:00;;;;;;;;;;;;;;;27.27;41.45;95645.41;10402996;28;1888;-71
2022/08/01 14:57:04;;;;;;;;;;;;;;;27.06;42.28;95642.50;10413484;28;1992;-71
2022/08/01 15:02:10;;;;;;;;;;;;;;;26.55;43.25;95648.75;10406360;28;1887;-71
2022/08/01 15:07:14;;;;;;;;;;;;;;;26.03;44.77;95659.63;10409087;28;1809;-72
2022/08/01 15:12:17;;;;;;;;;;;;;;;25.50;46.06;95665.19;10411768;28;1888;-71
2022/08/01 15:17:21;;;;;;;;;;;;;;;25.02;50.31;95667.63;10405718;28;2359;-72
2022/08/01 15:22:25;;;;;;;;;;;;;;;24.37;49.84;95675.16;10408612;28;1884;-70
2022/08/01 15:27:29;;;;;;;;;;;;;;;23.65;55.52;95681.13;10408116;28;2121;-72
2022/08/01 15:32:33;;;;;;;;;;;;;;;;;;10405563;28;1888;-72
2022/08/01 15:37:36;;;;;;;;;;;;;;;21.07;86.99;95675.44;10411793;28;1910;-71
2022/08/01 15:42:45;;;;;;;;;;;;;;;20.64;94.82;95678.75;10409993;28;1784;-71
2022/08/01 15:47:48;;;;;;;;;;;;;;;20.60;100.00;95686.00;10409273;28;2074;-70
2022/08/01 15:52:52;;;;;;;;;;;;;;;20.63;95.82;95688.88;10413054;28;2042;-71
2022/08/01 15:57:56;;;;;;;;;;;;;;;20.72;93.57;95688.75;10422689;28;1914;-70
2022/08/01 16:02:59;;;;;;;;;;;;;;;20.87;94.85;95688.09;10416504;28;1837;-71
2022/08/01 16:08:03;;;;;;;;;;;;;;;20.92;90.34;95696.03;10419830;28;1832;-72
2022/08/01 16:13:07;;;;;;;;;;;;;;;20.91;94.14;95693.66;10420525;28;1845;-71
2022/08/01 16:18:11;;;;;;;;;;;;;;;21.03;92.86;95708.13;10414667;28;1906;-71
2022/08/01 16:23:15;;;;;;;;;;;;;;;21.12;87.78;95691.63;10419647;28;1878;-72
2022/08/01 16:28:19;;;;;;;;;;;;;;;21.32;84.84;95698.13;10414838;28;1888;-71
2022/08/01 16:33:25;;;;;;;;;;;;;;;21.66;81.81;95685.03;10415747;28;1943;-71
2022/08/01 16:38:50;;;;;;;;;;;;;;;21.88;78.94;95675.50;10417671;28;1981;-71
2022/08/01 16:43:53;;;;;;;;;;;;;;;22.01;76.64;95664.16;10416483;28;1821;-72
2022/08/01 16:48:57;;;;;;;;;;;;;;;22.14;69.89;95662.19;10421326;28;1896;-71
2022/08/01 16:54:01;;;;;;;;;;;;;;;22.02;69.53;95654.81;10419609;28;2086;-71
2022/08/01 16:59:05;;;;;;;;;;;;;;;22.19;69.10;95637.28;10421104;28;1979;-70
2022/08/01 17:04:10;;;;;;;;;;;;;;;22.33;67.08;95631.38;10410745;28;1821;-71
2022/08/01 17:09:14;;;;;;;;;;;;;;;22.47;65.63;95629.03;10419228;28;1947;-71
2022/08/01 17:14:17;;;;;;;;;;;;;;;22.55;64.85;95625.31;10428707;28;1845;-72
2022/08/01 17:19:21;;;;;;;;;;;;;;;22.85;61.95;95624.84;10412274;28;1983;-72
2022/08/01 17:24:35;;;;;;;;;;;;;;;23.06;59.69;95630.03;10411818;28;1844;-72
2022/08/01 17:29:39;;;;;;;;;;;;;;;22.97;59.21;95638.47;10407586;28;1882;-71
2022/08/01 17:34:46;;;;;;;;;;;;;;;22.77;59.38;95634.81;10419323;28;2399;-71
2022/08/01 17:39:50;;;;;;;;;;;;;;;22.59;60.11;95633.63;10408683;28;2010;-71
2022/08/01 17:44:54;;;;;;;;;;;;;;;22.31;62.03;95650.09;10410030;28;2044;-71
2022/08/01 17:50:01;;;;;;;;;;;;;;;22.23;62.67;95653.81;10415660;28;1958;-70
2022/08/01 17:55:04;;;;;;;;;;;;;;;22.19;62.75;95661.13;10420528;28;2011;-70
2022/08/01 18:00:28;;;;;;;;;;;;;;;22.07;63.12;95665.47;10421276;28;1906;-71
2022/08/01 18:05:31;;;;;;;;;;;;;;;22.04;62.22;95679.09;10410847;28;1978;-71
2022/08/01 18:10:41;;;;;;;;;;;;;;;22.03;63.09;95691.97;10419417;28;1828;-70
2022/08/01 18:15:45;;;;;;;;;;;;;;;22.02;63.42;95686.88;10409289;28;1832;-71
2022/08/01 18:20:52;;;;;;;;;;;;;;;22.09;63.72;95671.44;10413868;28;2029;-72
2022/08/01 18:26:01;;;;;;;;;;;;;;;22.01;64.93;95677.84;10413572;28;2036;-72
2022/08/01 18:31:05;;;;;;;;;;;;;;;21.98;63.78;95684.00;10405508;28;2001;-71
2022/08/01 18:36:09;;;;;;;;;;;;;;;21.94;63.04;95691.31;10414670;28;1926;-71
2022/08/01 18:41:32;;;;;;;;;;;;;;;21.90;63.34;95678.69;10414688;28;1994;-71
2022/08/01 18:46:37;;;;;;;;;;;;;;;21.99;64.36;95669.19;10413791;28;1789;-71
2022/08/01 18:51:41;;;;;;;;;;;;;;;21.89;65.24;95685.31;10404762;28;1809;-71
2022/08/01 18:56:47;;;;;;;;;;;;;;;21.85;66.45;95704.38;10413594;28;1980;-71
2022/08/01 19:01:50;;;;;;;;;;;;;;;21.86;67.80;95725.09;10409483;28;1926;-71
2022/08/01 19:06:54;;;;;;;;;;;;;;;21.96;69.17;95732.84;10416680;28;1911;-72
2022/08/01 19:11:57;;;;;;;;;;;;;;;21.82;75.81;95737.88;10406994;28;1895;-70
2022/08/01 19:17:01;;;;;;;;;;;;;;;21.41;85.14;95748.00;10411077;28;1895;-71
2022/08/01 19:22:04;;;;;;;;;;;;;;;20.02;100.00;95745.19;10411686;28;1910;-71
2022/08/01 19:27:08;;;;;;;;;;;;;;;19.34;100.00;95743.44;10407346;28;1922;-73
2022/08/01 19:32:12;;;;;;;;;;;;;;;19.24;100.00;95754.69;10411252;28;1864;-74
2022/08/01 19:37:16;;;;;;;;;;;;;;;19.16;100.00;95755.56;10425333;28;2211;-73
2022/08/01 19:42:19;;;;;;;;;;;;;;;19.40;100.00;95761.19;10416331;28;1969;-72
2022/08/01 19:47:23;;;;;;;;;;;;;;;19.25;100.00;95755.50;10414763;28;1867;-72
2022/08/01 19:52:47;;;;;;;;;;;;;;;19.11;100.00;95778.31;10407135;28;1959;-71
2022/08/01 19:57:51;;;;;;;;;;;;;;;18.84;100.00;95801.34;10414682;28;1914;-73
2022/08/01 20:03:15;;;;;;;;;;;;;;;18.72;100.00;95830.38;10403516;28;2020;-72
2022/08/01 20:08:18;;;;;;;;;;;;;;;18.64;100.00;95829.25;10428067;28;1895;-73
2022/08/01 20:13:21;;;;;;;;;;;;;;;18.74;100.00;95804.41;10413790;28;1827;-70
2022/08/01 20:18:25;;;;;;;;;;;;;;;18.88;100.00;95785.94;10407820;28;1909;-70
2022/08/01 20:23:29;;;;;;;;;;;;;;;18.96;100.00;95787.06;10408720;28;1832;-70
2022/08/01 20:28:33;;;;;;;;;;;;;;;18.95;100.00;95785.44;10415700;28;2026;-71
2022/08/01 20:33:36;;;;;;;;;;;;;;;18.94;100.00;95783.03;10412763;28;2047;-70
2022/08/01 20:38:39;;;;;;;;;;;;;;;18.94;100.00;95783.03;10420544;28;1918;-71
2022/08/01 20:43:44;;;;;;;;;;;;;;;18.92;100.00;95769.75;10412155;28;1873;-72
2022/08/01 20:48:47;;;;;;;;;;;;;;;18.89;100.00;95779.38;10421262;28;1998;-72
2022/08/01 20:53:51;;;;;;;;;;;;;;;18.86;100.00;95780.03;10410681;28;2050;-70
2022/08/01 20:58:55;;;;;;;;;;;;;;;18.90;100.00;95789.16;10412176;28;2093;-70
2022/08/01 21:04:01;;;;;;;;;;;;;;;18.89;100.00;95803.06;10418491;28;1836;-70
2022/08/01 21:09:05;;;;;;;;;;;;;;;18.92;100.00;95807.09;10418367;28;1908;-70
2022/08/01 21:14:09;;;;;;;;;;;;;;;18.98;100.00;95805.78;10411389;28;1884;-70
2022/08/01 21:19:12;;;;;;;;;;;;;;;19.09;100.00;95815.22;10412649;28;2074;-71
2022/08/01 21:24:24;;;;;;;;;;;;;;;19.09;100.00;95829.63;10411765;28;2010;-71
2022/08/01 21:29:27;;;;;;;;;;;;;;;19.02;100.00;95856.56;10415965;28;2062;-70
2022/08/01 21:34:31;;;;;;;;;;;;;;;18.95;100.00;95872.59;10414779;28;1999;-71
2022/08/01 21:39:35;;;;;;;;;;;;;;;18.57;100.00;95884.16;10410835;28;2132;-71
2022/08/01 21:44:39;;;;;;;;;;;;;;;18.09;100.00;95903.38;10412509;28;2046;-70
2022/08/01 21:49:43;;;;;;;;;;;;;;;17.77;100.00;95902.66;10415452;28;2078;-71
2022/08/01 21:54:47;;;;;;;;;;;;;;;17.55;100.00;95908.16;10416120;28;1865;-76
2022/08/01 21:59:52;;;;;;;;;;;;;;;17.43;100.00;95905.22;10410891;28;1919;-71
2022/08/01 22:04:55;;;;;;;;;;;;;;;17.30;100.00;95885.19;10410157;28;1966;-71
2022/08/01 22:09:59;;;;;;;;;;;;;;;17.24;100.00;95903.59;10412383;28;1855;-70
2022/08/01 22:15:03;;;;;;;;;;;;;;;17.06;100.00;95893.75;10412716;28;1876;-69
2022/08/01 22:20:07;;;;;;;;;;;;;;;16.77;100.00;95882.53;10416149;28;1906;-69
2022/08/01 22:25:10;;;;;;;;;;;17.40;99.90;;;16.53;100.00;95886.34;10409949;28;2085;-73
2022/08/01 22:30:14;;;;;;;;;;;17.30;99.90;;;16.45;100.00;95874.31;10410263;28;1920;-70
2022/08/01 22:35:17;;;;;;;;;;;17.20;99.90;;;16.41;100.00;95875.25;10410023;28;1813;-72
2022/08/01 22:40:20;;;;;;;;;;;17.10;99.90;;;16.46;100.00;95867.78;10414569;28;2110;-70
2022/08/01 22:45:23;;;;;;;;;;;17.00;99.90;;;16.42;100.00;95866.00;10409683;28;1821;-72
2022/08/01 22:50:27;;;;;;;;;;;17.00;99.90;;;16.43;100.00;95864.91;10416409;28;1805;-69
2022/08/01 22:55:38;;;;;;;;;;;17.00;99.90;;;16.50;100.00;95857.13;10410826;28;1874;-73
2022/08/01 23:01:01;;;;;;;;;;;;;;;16.55;100.00;95843.44;10415767;28;1914;-68
2022/08/01 23:06:04;;;;;;;;;;;;;;;16.67;100.00;95856.44;10408239;28;2156;-71
2022/08/01 23:11:08;;;;;;;;;;;;;;;16.70;100.00;95848.50;10402336;28;1839;-70
2022/08/01 23:16:11;;;;;;;;;;;;;;;16.77;100.00;95839.91;10408673;28;1820;-71
2022/08/01 23:21:20;;;;;;;;;;;;;;;16.87;100.00;95850.50;10406183;28;1906;-70
2022/08/01 23:26:23;;;;;;;;;;;;;;;16.90;100.00;95838.22;10410724;28;1896;-69
2022/08/01 23:31:26;;;;;;;;;;;;;;;16.95;100.00;95840.81;10411897;28;1816;-69
2022/08/01 23:36:51;;;;;;;;;;;;;;;17.00;100.00;95848.81;10411974;28;1811;-69
2022/08/01 23:41:55;;;;;;;;;;;;;;;17.02;100.00;95846.59;10410992;28;1906;-69
2022/08/01 23:47:02;;;;;;;;;;;;;;;17.00;100.00;95854.25;10413432;28;1901;-69
2022/08/01 23:52:05;;;;;;;;;;;;;;;17.03;100.00;95850.91;10406751;28;1874;-70
2022/08/01 23:57:11;;;;;;;;;;;;;;;17.01;100.00;95850.41;10414512;28;1785;-70
